Main page
METAR-TAF:

METAR-TAF

Airports :

Eurico de Aguiar Salles Airport

Vitória, Espírito Santo, Brazil

latitude: 20-16S, longitude: 040-17W, elevation: 4 m

Current weather observation

The report was made 34 minutes ago, at 16:00 UTC
Wind 14 kt from the East
Temperature 34°C
Humidity 56%
Pressure 1009 hPa
Visibility 10 km or more
Few clouds at a height of 4000 ft

METAR: SBVT 211600Z 08014KT 9999 FEW040 34/24 Q1009

Time: 13:34 (16:34 UTC)

Forecast

The report was made 6 hours and 34 minutes ago, at 10:00 UTC
Forecast valid from 21 at 12 UTC to 22 at 12 UTC
Wind 10 kt from the North/Northeast
Visibility 10 km or more
Few clouds at a height of 2500 ft

TAF: SBVT 211000Z 2112/2212 02010KT 9999 FEW025 TX31/2115Z TN24/2207Z RMK PED

Weather observations and forecasts of more than 4000 airports (METAR and TAF reports).

The available stations are represented by yellow and red dots on the map.

Hover mouse over dot to see the name of the station.

Then click to see weather observations and forecasts.

To change the map : click on the green buttons with a black cross to zoom in, on the green button with a dash to zoom out, or on the green arrows for adjacent maps.


METAR-TAF: